createdAt,value
2023-04-01T00:00:32.721Z,98200.41
2023-04-01T00:03:01.299Z,98203.25
2023-04-01T00:05:29.036Z,98215.88
2023-04-01T00:07:56.780Z,98196.75
2023-04-01T00:10:26.180Z,98195.94
2023-04-01T00:12:54.271Z,98187.00
2023-04-01T00:15:22.557Z,98175.78
2023-04-01T00:17:50.578Z,98194.50
2023-04-01T00:20:18.558Z,98180.88
2023-04-01T00:22:46.196Z,98199.19
2023-04-01T00:25:14.030Z,98184.72
2023-04-01T00:27:44.072Z,98178.63
2023-04-01T00:30:12.743Z,98170.91
2023-04-01T00:32:40.609Z,98181.47
2023-04-01T00:35:09.838Z,98165.78
2023-04-01T00:37:38.744Z,98165.00
2023-04-01T00:40:09.659Z,98165.41
2023-04-01T00:42:37.434Z,98163.53
2023-04-01T00:45:27.810Z,98180.06
2023-04-01T00:47:55.915Z,98189.81
2023-04-01T00:50:26.946Z,98180.25
2023-04-01T00:52:55.031Z,98188.19
2023-04-01T00:55:25.305Z,98180.69
2023-04-01T00:57:55.362Z,98172.13
2023-04-01T01:00:23.263Z,98185.34
2023-04-01T01:02:53.189Z,98177.84
2023-04-01T01:05:27.985Z,98186.38
2023-04-01T01:08:05.327Z,98179.44
2023-04-01T01:10:35.603Z,98188.44
2023-04-01T01:13:10.708Z,98169.66
2023-04-01T01:15:48.222Z,98186.16
2023-04-01T01:18:24.422Z,98180.88
2023-04-01T01:21:52.324Z,98161.72
2023-04-01T01:24:42.429Z,98154.41
2023-04-01T01:27:11.814Z,98170.09
2023-04-01T01:30:18.366Z,98152.75
2023-04-01T01:33:22.505Z,98160.69
2023-04-01T01:35:55.491Z,98152.97
2023-04-01T01:38:26.681Z,98171.31
2023-04-01T01:40:58.692Z,98170.31
2023-04-01T01:43:32.496Z,98155.25
2023-04-01T01:46:04.040Z,98152.03
2023-04-01T01:48:33.389Z,98149.59
2023-04-01T01:51:02.983Z,98162.00
2023-04-01T01:53:30.705Z,98156.09
2023-04-01T01:55:58.403Z,98154.72
2023-04-01T01:58:30.900Z,98156.53
2023-04-01T02:01:02.324Z,98160.19
2023-04-01T02:03:33.628Z,98161.00
2023-04-01T02:06:05.034Z,98157.75
2023-04-01T02:08:37.504Z,98161.00
2023-04-01T02:11:09.692Z,98152.28
2023-04-01T02:13:44.718Z,98145.97
2023-04-01T02:16:17.243Z,98149.44
2023-04-01T02:18:48.739Z,98155.16
2023-04-01T02:21:20.352Z,98146.41
2023-04-01T02:23:49.391Z,98135.59
2023-04-01T02:26:18.142Z,98141.72
2023-04-01T02:28:48.649Z,98145.59
2023-04-01T02:31:17.149Z,98143.75
2023-04-01T02:33:45.088Z,98147.41
2023-04-01T02:36:15.232Z,98144.16
2023-04-01T02:38:46.379Z,98145.59
2023-04-01T02:41:14.223Z,98154.91
2023-04-01T02:43:41.841Z,98147.19
2023-04-01T02:46:09.704Z,98152.09
2023-04-01T02:48:37.300Z,98142.72
2023-04-01T02:51:05.438Z,98146.78
2023-04-01T02:53:33.077Z,98147.81
2023-04-01T02:56:02.113Z,98154.09
2023-04-01T02:58:29.759Z,98147.41
2023-04-01T03:00:57.602Z,98153.09
2023-04-01T03:03:25.320Z,98146.78
2023-04-01T03:05:54.903Z,98155.13
2023-04-01T03:08:22.577Z,98139.50
2023-04-01T03:10:50.245Z,98149.25
2023-04-01T03:13:19.252Z,98153.72
2023-04-01T03:15:46.930Z,98156.75
2023-04-01T03:18:14.613Z,98148.81
2023-04-01T03:20:42.262Z,98157.56
2023-04-01T03:23:10.272Z,98155.53
2023-04-01T03:25:37.924Z,98150.66
2023-04-01T03:28:05.762Z,98140.31
2023-04-01T03:30:34.745Z,98152.69
2023-04-01T03:33:03.754Z,98135.41
2023-04-01T03:35:31.644Z,98160.81
2023-04-01T03:37:59.529Z,98150.66
2023-04-01T03:40:28.394Z,98148.63
2023-04-01T03:42:57.142Z,98146.16
2023-04-01T03:45:24.949Z,98145.59
2023-04-01T03:47:53.940Z,98147.19
2023-04-01T03:50:21.554Z,98137.44
2023-04-01T03:52:49.294Z,98135.22
2023-04-01T03:55:19.027Z,98133.19
2023-04-01T03:57:46.685Z,98131.56
2023-04-01T04:00:14.838Z,98123.63
2023-04-01T04:02:42.656Z,98106.16
2023-04-01T04:05:11.888Z,98125.25
2023-04-01T04:07:39.804Z,98124.44
2023-04-01T04:10:08.872Z,98112.25
2023-04-01T04:12:36.461Z,98114.69
2023-04-01T04:15:04.330Z,98106.34
2023-04-01T04:17:31.999Z,98108.59
2023-04-01T04:19:59.603Z,98098.22
2023-04-01T04:22:28.756Z,98099.22
2023-04-01T04:24:56.456Z,98116.50
2023-04-01T04:27:24.131Z,98117.09
2023-04-01T04:29:51.880Z,98103.69
2023-04-01T04:32:19.505Z,98088.47
2023-04-01T04:34:47.153Z,98078.91
2023-04-01T04:37:14.764Z,98095.38
2023-04-01T04:39:43.692Z,98100.03
2023-04-01T04:42:11.291Z,98097.19
2023-04-01T04:44:38.995Z,98102.06
2023-04-01T04:47:06.712Z,98101.25
2023-04-01T04:49:34.352Z,98101.88
2023-04-01T04:52:01.990Z,98112.44
2023-04-01T04:54:29.613Z,98113.69
2023-04-01T04:56:58.688Z,98123.22
2023-04-01T04:59:27.125Z,98111.25
2023-04-01T05:01:54.772Z,98111.84
2023-04-01T05:04:22.409Z,98124.44
2023-04-01T05:06:50.051Z,98125.47
2023-04-01T05:09:17.737Z,98123.22
2023-04-01T05:11:45.833Z,98125.25
2023-04-01T05:14:16.423Z,98123.00
2023-04-01T05:16:44.160Z,98135.41
2023-04-01T05:19:12.049Z,98122.81
2023-04-01T05:21:39.724Z,98130.13
2023-04-01T05:24:10.318Z,98129.72
2023-04-01T05:26:38.639Z,98121.59
2023-04-01T05:29:06.713Z,98121.59
2023-04-01T05:31:35.772Z,98123.44
2023-04-01T05:34:03.478Z,98124.88
2023-04-01T05:36:31.183Z,98126.88
2023-04-01T05:38:58.967Z,98140.69
2023-04-01T05:41:26.623Z,98129.72
2023-04-01T05:43:54.216Z,98116.53
2023-04-01T05:46:22.295Z,98120.16
2023-04-01T05:48:51.337Z,98119.38
2023-04-01T05:51:19.240Z,98119.38
2023-04-01T05:53:46.970Z,98116.72
2023-04-01T05:56:14.646Z,98115.09
2023-04-01T05:58:42.305Z,98124.84
2023-04-01T06:01:15.864Z,98116.53
2023-04-01T06:03:44.459Z,98126.28
2023-04-01T06:06:16.690Z,98130.34
2023-04-01T06:08:45.304Z,98118.53
2023-04-01T06:11:25.107Z,98104.53
2023-04-01T06:14:11.271Z,98091.50
2023-04-01T06:16:58.173Z,98108.19
2023-04-01T06:19:35.885Z,98108.41
2023-04-01T06:22:30.078Z,98104.53
2023-04-01T06:25:18.640Z,98099.25
2023-04-01T06:28:02.524Z,98101.69
2023-04-01T06:30:42.069Z,98101.28
2023-04-01T06:33:44.865Z,98098.84
2023-04-01T06:36:49.524Z,98096.41
2023-04-01T06:39:35.393Z,98113.06
2023-04-01T06:42:15.469Z,98114.28
2023-04-01T06:44:56.268Z,98131.13
2023-04-01T06:47:37.660Z,98108.59
2023-04-01T06:50:17.865Z,98106.34
2023-04-01T06:52:53.703Z,98119.78
2023-04-01T06:55:34.470Z,98123.81
2023-04-01T06:58:06.562Z,98105.75
2023-04-01T07:00:39.018Z,98111.03
2023-04-01T07:03:20.453Z,98111.03
2023-04-01T07:05:48.428Z,98104.53
2023-04-01T07:08:22.368Z,98106.56
2023-04-01T07:10:55.675Z,98093.97
2023-04-01T07:13:30.399Z,98107.78
2023-04-01T07:16:05.116Z,98103.94
2023-04-01T07:18:39.127Z,98101.06
2023-04-01T07:21:12.334Z,98090.72
2023-04-01T07:23:44.397Z,98093.97
2023-04-01T07:26:21.661Z,98090.31
2023-04-01T07:28:50.960Z,98095.59
2023-04-01T07:31:28.885Z,98091.13
2023-04-01T07:34:05.424Z,98099.66
2023-04-01T07:36:41.075Z,98095.19
2023-04-01T07:39:20.828Z,98102.50
2023-04-01T07:41:58.755Z,98104.91
2023-04-01T07:44:35.230Z,98111.81
2023-04-01T07:47:13.304Z,98118.34
2023-04-01T07:49:54.830Z,98108.59
2023-04-01T07:52:29.188Z,98116.09
2023-04-01T07:55:04.328Z,98122.00
2023-04-01T07:57:44.930Z,98101.03
2023-04-01T08:00:20.984Z,98115.44
2023-04-01T08:03:08.237Z,98117.84
2023-04-01T08:05:43.442Z,98112.38
2023-04-01T08:08:20.963Z,98112.97
2023-04-01T08:10:53.414Z,98116.06
2023-04-01T08:13:33.672Z,98119.31
2023-04-01T08:16:11.722Z,98123.56
2023-04-01T08:18:48.035Z,98115.03
2023-04-01T08:21:22.453Z,98118.91
2023-04-01T08:23:53.781Z,98135.13
2023-04-01T08:26:28.142Z,98128.66
2023-04-01T08:29:03.872Z,98137.19
2023-04-01T08:31:35.399Z,98137.75
2023-04-01T08:34:06.893Z,98136.16
2023-04-01T08:36:38.272Z,98137.59
2023-04-01T08:39:11.728Z,98140.19
2023-04-01T08:42:21.374Z,98149.16
2023-04-01T08:45:09.528Z,98131.88
2023-04-01T08:47:51.459Z,98138.78
2023-04-01T08:50:33.685Z,98140.63
2023-04-01T08:53:08.964Z,98147.31
2023-04-01T08:55:48.949Z,98146.88
2023-04-01T08:58:48.732Z,98149.72
2023-04-01T09:01:35.475Z,98144.81
2023-04-01T09:04:25.163Z,98158.84
2023-04-01T09:07:06.120Z,98147.38
2023-04-01T09:10:03.008Z,98154.31
2023-04-01T09:13:01.955Z,98156.69
2023-04-01T09:15:47.107Z,98154.25
2023-04-01T09:18:26.339Z,98142.81
2023-04-01T09:21:19.288Z,98147.16
2023-04-01T09:23:59.130Z,98157.25
2023-04-01T09:27:06.127Z,98157.84
2023-04-01T09:29:55.253Z,98163.34
2023-04-01T09:32:47.052Z,98168.13
2023-04-01T09:35:31.979Z,98164.00
2023-04-01T09:38:13.805Z,98174.59
2023-04-01T09:40:51.621Z,98172.91
2023-04-01T09:43:27.375Z,98172.13
2023-04-01T09:46:06.260Z,98182.13
2023-04-01T09:48:49.380Z,98181.53
2023-04-01T09:51:28.353Z,98197.78
2023-04-01T09:54:09.500Z,98193.91
2023-04-01T09:57:13.230Z,98185.38
2023-04-01T10:00:10.411Z,98185.03
2023-04-01T10:03:22.980Z,98199.50
2023-04-01T10:06:23.377Z,98208.66
2023-04-01T10:09:25.834Z,98191.91
2023-04-01T10:12:23.224Z,98195.28
2023-04-01T10:15:30.794Z,98200.28
2023-04-01T10:18:31.960Z,98203.16
2023-04-01T10:21:19.874Z,98213.97
2023-04-01T10:24:07.883Z,98211.75
2023-04-01T10:27:12.487Z,98202.31
2023-04-01T10:30:07.159Z,98210.28
2023-04-01T10:33:16.299Z,98211.44
2023-04-01T10:36:20.813Z,98208.03
2023-04-01T10:39:19.335Z,98209.97
2023-04-01T10:42:08.147Z,98216.41
2023-04-01T10:45:02.049Z,98211.66
2023-04-01T10:47:52.370Z,98206.28
2023-04-01T10:51:01.377Z,98214.00
2023-04-01T10:53:40.385Z,98204.56
2023-04-01T10:56:40.785Z,98197.09
2023-04-01T10:59:38.017Z,98204.91
2023-04-01T11:02:42.933Z,98199.00
2023-04-01T11:05:50.138Z,98204.78
2023-04-01T11:08:53.434Z,98204.31
2023-04-01T11:11:54.707Z,98196.38
2023-04-01T11:14:48.736Z,98208.41
2023-04-01T11:17:58.672Z,98214.59
2023-04-01T11:20:57.733Z,98209.16
2023-04-01T11:23:39.731Z,98213.50
2023-04-01T11:26:11.638Z,98224.88
2023-04-01T11:28:57.753Z,98211.81
2023-04-01T11:31:48.104Z,98208.06
2023-04-01T11:34:34.336Z,98216.69
2023-04-01T11:37:13.147Z,98219.22
2023-04-01T11:39:52.781Z,98226.53
2023-04-01T11:42:32.767Z,98219.75
2023-04-01T11:45:14.430Z,98219.59
2023-04-01T11:48:00.839Z,98225.50
2023-04-01T11:50:41.307Z,98231.63
2023-04-01T11:53:31.596Z,98225.34
2023-04-01T11:56:11.475Z,98211.69
2023-04-01T11:59:14.884Z,98234.38
2023-04-01T12:01:52.112Z,98232.41
2023-04-01T12:04:49.353Z,98218.50
2023-04-01T12:07:29.507Z,98235.13
2023-04-01T12:10:05.245Z,98238.06
2023-04-01T12:12:54.201Z,98235.59
2023-04-01T12:15:32.582Z,98232.75
2023-04-01T12:18:05.720Z,98239.88
2023-04-01T12:20:47.799Z,98261.63
2023-04-01T12:23:30.692Z,98251.22
2023-04-01T12:26:29.878Z,98246.28
2023-04-01T12:29:15.370Z,98249.03
2023-04-01T12:31:54.978Z,98241.88
2023-04-01T12:34:45.682Z,98256.88
2023-04-01T12:37:23.096Z,98231.97
2023-04-01T12:40:04.393Z,98235.84
2023-04-01T12:42:48.118Z,98234.09
2023-04-01T12:45:31.689Z,98252.84
2023-04-01T12:48:34.960Z,98241.53
2023-04-01T12:51:21.768Z,98256.53
2023-04-01T12:54:11.713Z,98241.88
2023-04-01T12:56:50.051Z,98258.75
2023-04-01T12:59:35.638Z,98258.13
2023-04-01T13:02:09.721Z,98265.38
2023-04-01T13:04:58.554Z,98247.94
2023-04-01T13:07:47.944Z,98274.72
2023-04-01T13:10:29.779Z,98245.59
2023-04-01T13:13:28.872Z,98265.66
2023-04-01T13:16:00.483Z,98249.50
2023-04-01T13:18:41.544Z,98266.84
2023-04-01T13:21:18.232Z,98274.19
2023-04-01T13:23:56.296Z,98255.53
2023-04-01T13:26:35.824Z,98252.50
2023-04-01T13:29:09.829Z,98252.88
2023-04-01T13:31:49.458Z,98260.41
2023-04-01T13:34:33.094Z,98267.53
2023-04-01T13:37:16.471Z,98269.91
2023-04-01T13:39:58.878Z,98263.75
2023-04-01T13:42:33.452Z,98276.34
2023-04-01T13:45:04.497Z,98275.22
2023-04-01T13:47:54.863Z,98273.38
2023-04-01T13:50:39.985Z,98279.28
2023-04-01T13:53:39.630Z,98290.41
2023-04-01T13:56:18.647Z,98296.63
2023-04-01T13:59:05.756Z,98303.22
2023-04-01T14:01:42.739Z,98290.75
2023-04-01T14:04:40.712Z,98308.88
2023-04-01T14:07:25.048Z,98315.75
2023-04-01T14:10:08.161Z,98281.19
2023-04-01T14:12:44.208Z,98312.59
2023-04-01T14:15:31.842Z,98300.09
2023-04-01T14:18:16.075Z,98315.84
2023-04-01T14:20:52.794Z,98305.72
2023-04-01T14:23:43.453Z,98317.31
2023-04-01T14:26:27.738Z,98322.16
2023-04-01T14:29:04.808Z,98322.41
2023-04-01T14:31:53.946Z,98334.81
2023-04-01T14:34:31.673Z,98328.97
2023-04-01T14:37:15.488Z,98335.72
2023-04-01T14:40:02.260Z,98349.88
2023-04-01T14:42:51.158Z,98340.63
2023-04-01T14:45:43.887Z,98347.50
2023-04-01T14:48:25.372Z,98343.28
2023-04-01T14:50:56.550Z,98357.22
2023-04-01T14:53:30.255Z,98360.75
2023-04-01T14:55:59.642Z,98354.88
2023-04-01T14:58:42.705Z,98348.50
2023-04-01T15:01:26.151Z,98342.50
2023-04-01T15:04:04.477Z,98342.59
2023-04-01T15:06:47.732Z,98356.06
2023-04-01T15:09:24.312Z,98362.97
2023-04-01T15:12:01.554Z,98363.28
2023-04-01T15:14:58.488Z,98347.94
2023-04-01T15:17:50.928Z,98361.41
2023-04-01T15:20:35.062Z,98353.59
2023-04-01T15:23:15.871Z,98349.31
2023-04-01T15:25:59.389Z,98359.19
2023-04-01T15:28:34.090Z,98360.66
2023-04-01T15:31:10.279Z,98350.63
2023-04-01T15:33:55.005Z,98351.25
2023-04-01T15:36:35.905Z,98346.00
2023-04-01T15:39:16.274Z,98355.44
2023-04-01T15:42:12.584Z,98369.84
2023-04-01T15:44:55.084Z,98370.97
2023-04-01T15:47:36.405Z,98385.97
2023-04-01T15:50:33.411Z,98386.31
2023-04-01T15:53:17.819Z,98379.91
2023-04-01T15:55:51.977Z,98389.50
2023-04-01T15:58:38.421Z,98395.59
2023-04-01T16:01:18.094Z,98390.75
2023-04-01T16:03:56.557Z,98399.94
2023-04-01T16:06:47.238Z,98386.16
2023-04-01T16:09:30.354Z,98402.72
2023-04-01T16:12:06.356Z,98398.59
2023-04-01T16:14:46.605Z,98402.59
2023-04-01T16:17:33.107Z,98403.47
2023-04-01T16:20:04.457Z,98408.75
2023-04-01T16:22:36.828Z,98399.31
2023-04-01T16:25:22.514Z,98410.03
2023-04-01T16:27:58.579Z,98407.28
2023-04-01T16:30:37.384Z,98420.31
2023-04-01T16:33:13.668Z,98414.22
2023-04-01T16:35:52.534Z,98415.88
2023-04-01T16:38:26.487Z,98417.13
2023-04-01T16:41:06.862Z,98411.41
2023-04-01T16:43:43.197Z,98437.50
2023-04-01T16:46:31.634Z,98431.78
2023-04-01T16:49:15.894Z,98431.69
2023-04-01T16:51:49.389Z,98430.91
2023-04-01T16:54:29.253Z,98429.59
2023-04-01T16:57:06.662Z,98438.75
2023-04-01T16:59:39.000Z,98452.63
2023-04-01T17:02:12.651Z,98448.34
2023-04-01T17:04:45.502Z,98448.53
2023-04-01T17:07:24.761Z,98464.47
2023-04-01T17:10:35.375Z,98456.91
2023-04-01T17:13:24.706Z,98461.97
2023-04-01T17:16:03.626Z,98471.81
2023-04-01T17:18:43.476Z,98475.47
2023-04-01T17:21:18.944Z,98469.34
2023-04-01T17:23:53.582Z,98473.69
2023-04-01T17:26:34.834Z,98494.47
2023-04-01T17:29:15.849Z,98479.47
2023-04-01T17:31:48.897Z,98486.00
2023-04-01T17:34:29.333Z,98494.38
2023-04-01T17:37:16.047Z,98495.13
2023-04-01T17:39:57.635Z,98505.34
2023-04-01T17:42:38.213Z,98502.31
2023-04-01T17:45:19.001Z,98499.25
2023-04-01T17:48:00.563Z,98505.78
2023-04-01T17:50:46.606Z,98500.50
2023-04-01T17:53:26.517Z,98507.81
2023-04-01T17:56:08.625Z,98499.84
2023-04-01T17:58:46.303Z,98512.72
2023-04-01T18:01:26.656Z,98518.78
2023-04-01T18:04:04.779Z,98514.31
2023-04-01T18:06:39.224Z,98519.19
2023-04-01T18:09:19.168Z,98524.69
2023-04-01T18:11:55.051Z,98528.16
2023-04-01T18:14:42.274Z,98538.75
2023-04-01T18:17:23.566Z,98548.09
2023-04-01T18:20:04.376Z,98551.97
2023-04-01T18:22:41.930Z,98562.94
2023-04-01T18:25:21.482Z,98563.78
2023-04-01T18:27:53.477Z,98568.44
2023-04-01T18:30:28.124Z,98564.78
2023-04-01T18:33:03.602Z,98579.44
2023-04-01T18:35:46.738Z,98578.19
2023-04-01T18:38:17.373Z,98587.38
2023-04-01T18:40:50.969Z,98576.78
2023-04-01T18:43:32.044Z,98586.13
2023-04-01T18:46:03.914Z,98591.84
2023-04-01T18:48:50.160Z,98591.22
2023-04-01T18:51:22.753Z,98604.66
2023-04-01T18:53:58.472Z,98609.34
2023-04-01T18:56:31.434Z,98604.84
2023-04-01T18:59:07.003Z,98603.03
2023-04-01T19:01:42.583Z,98601.81
2023-04-01T19:04:21.157Z,98619.31
2023-04-01T19:06:52.783Z,98605.03
2023-04-01T19:09:25.417Z,98615.41
2023-04-01T19:12:21.994Z,98615.81
2023-04-01T19:15:01.950Z,98624.13
2023-04-01T19:17:47.243Z,98621.28
2023-04-01T19:20:24.876Z,98625.56
2023-04-01T19:23:20.035Z,98626.19
2023-04-01T19:25:53.052Z,98622.09
2023-04-01T19:28:35.770Z,98628.38
2023-04-01T19:31:14.073Z,98635.03
2023-04-01T19:33:54.684Z,98638.09
2023-04-01T19:36:32.506Z,98641.22
2023-04-01T19:39:14.516Z,98641.13
2023-04-01T19:41:52.700Z,98636.06
2023-04-01T19:44:32.775Z,98642.38
2023-04-01T19:47:10.438Z,98647.66
2023-04-01T19:49:55.233Z,98652.53
2023-04-01T19:52:32.953Z,98648.88
2023-04-01T19:55:08.439Z,98650.53
2023-04-01T19:57:43.747Z,98652.72
2023-04-01T20:00:23.577Z,98660.94
2023-04-01T20:03:08.468Z,98658.75
2023-04-01T20:05:48.490Z,98669.53
2023-04-01T20:08:27.934Z,98675.78
2023-04-01T20:11:08.011Z,98686.13
2023-04-01T20:13:47.442Z,98682.16
2023-04-01T20:16:16.727Z,98693.34
2023-04-01T20:18:52.947Z,98699.06
2023-04-01T20:21:33.954Z,98702.31
2023-04-01T20:24:10.044Z,98711.53
2023-04-01T20:26:42.100Z,98707.28
2023-04-01T20:29:40.642Z,98711.19
2023-04-01T20:32:21.239Z,98719.53
2023-04-01T20:35:02.050Z,98709.34
2023-04-01T20:37:39.747Z,98710.06
2023-04-01T20:40:39.746Z,98710.84
2023-04-01T20:43:27.127Z,98710.81
2023-04-01T20:46:00.484Z,98710.81
2023-04-01T20:48:46.689Z,98706.44
2023-04-01T20:51:17.451Z,98721.41
2023-04-01T20:53:52.072Z,98724.22
2023-04-01T20:56:42.511Z,98720.63
2023-04-01T20:59:24.845Z,98725.91
2023-04-01T21:02:00.742Z,98729.16
2023-04-01T21:04:39.896Z,98733.53
2023-04-01T21:07:17.954Z,98736.69
2023-04-01T21:10:12.008Z,98746.03
2023-04-01T21:12:50.011Z,98753.00
2023-04-01T21:15:32.629Z,98759.00
2023-04-01T21:18:12.064Z,98765.69
2023-04-01T21:21:07.508Z,98758.34
2023-04-01T21:23:49.463Z,98764.28
2023-04-01T21:26:36.579Z,98760.75
2023-04-01T21:29:36.888Z,98769.47
2023-04-01T21:32:36.633Z,98769.47
2023-04-01T21:35:16.527Z,98776.59
2023-04-01T21:38:14.608Z,98773.00
2023-04-01T21:41:13.954Z,98777.66
2023-04-01T21:44:12.824Z,98779.09
2023-04-01T21:47:03.470Z,98778.03
2023-04-01T21:49:51.903Z,98789.16
2023-04-01T21:52:45.105Z,98781.88
2023-04-01T21:56:06.572Z,98786.75
2023-04-01T21:59:10.061Z,98790.50
2023-04-01T22:02:09.186Z,98800.03
2023-04-01T22:04:59.641Z,98800.34
2023-04-01T22:07:36.331Z,98807.13
2023-04-01T22:10:12.596Z,98808.78
2023-04-01T22:12:45.455Z,98806.13
2023-04-01T22:15:21.146Z,98813.50
2023-04-01T22:17:55.893Z,98806.25
2023-04-01T22:20:32.132Z,98811.97
2023-04-01T22:23:22.974Z,98809.72
2023-04-01T22:25:58.976Z,98820.38
2023-04-01T22:28:34.230Z,98817.31
2023-04-01T22:31:03.585Z,98812.34
2023-04-01T22:33:38.673Z,98818.91
2023-04-01T22:36:20.298Z,98818.91
2023-04-01T22:39:04.272Z,98818.31
2023-04-01T22:41:49.198Z,98813.84
2023-04-01T22:44:29.630Z,98813.03
2023-04-01T22:47:07.725Z,98817.50
2023-04-01T22:49:41.279Z,98822.06
2023-04-01T22:52:19.014Z,98820.53
2023-04-01T22:54:50.801Z,98825.66
2023-04-01T22:57:37.882Z,98826.97
2023-04-01T23:00:11.546Z,98837.53
2023-04-01T23:02:43.308Z,98834.75
2023-04-01T23:05:17.986Z,98841.69
2023-04-01T23:07:53.973Z,98842.00
2023-04-01T23:10:27.218Z,98843.28
2023-04-01T23:12:58.949Z,98858.63
2023-04-01T23:15:28.833Z,98863.69
2023-04-01T23:18:07.918Z,98864.50
2023-04-01T23:20:57.992Z,98863.44
2023-04-01T23:23:37.512Z,98872.09
2023-04-01T23:26:12.525Z,98877.59
2023-04-01T23:28:50.528Z,98879.97
2023-04-01T23:31:29.420Z,98885.59
2023-04-01T23:33:58.250Z,98892.72
2023-04-01T23:36:28.005Z,98897.69
2023-04-01T23:38:56.174Z,98907.19
2023-04-01T23:41:27.334Z,98901.75
2023-04-01T23:43:58.644Z,98907.25
2023-04-01T23:46:27.439Z,98903.59
2023-04-01T23:48:55.772Z,98905.44
2023-04-01T23:51:26.725Z,98907.75
2023-04-01T23:54:04.258Z,98903.19
2023-04-01T23:56:40.969Z,98899.31
2023-04-01T23:59:17.713Z,98905.13
